»·PEaware :: N445SN KSMX-KBFL

N445SN :: KSMX-KBFL

FLIGHT INFORMATION

Flight Status: Arrived
Operator: Privately registered:
United States
More flights under this callsign
Pilot: Jeremy W. (20490)
Aircraft: CESSNA 152 AEROBAT
(C152)
More flights by this aircraft type
Origin: KSMX Santa Maria Pub/Capt Hancock
United States
Destination: KBFL Meadows
United States
More flights between these airports :: More routes between these airports
Route:
File this flight plan on PilotEdge
Remarks: CAT-05
Altitude:
(Current/Filed)
7,500ft
Speed:
(Current/Filed)
107kts
Departed: 20-Sep-18 08:54 PM
Arrived: 20-Sep-18 09:46 PM
Distance/Time
Traveled:
76nm/0:52
Distance/Time
To Go:
Arrived

Flight Plot

Page will automatically refresh every two minutes.


Map Options




Map Legend


Flown Route
Filed Route
Departure Airport
Arrival Airport
Navaid (VOR, NDB)
Fix

Horizontal Profiles

Position Reports

Time Latitude Longitude Heading Altitude Ground
Speed
20-Sep-18 20:31 34.896405 -120.445440 314 264ft 0kts
20-Sep-18 20:32 34.896405 -120.445440 314 264ft 0kts
20-Sep-18 20:33 34.896405 -120.445440 314 264ft 0kts
20-Sep-18 20:34 34.896405 -120.445440 314 264ft 0kts
20-Sep-18 20:35 34.896405 -120.445440 314 264ft 0kts
20-Sep-18 20:36 34.896405 -120.445440 314 264ft 0kts
20-Sep-18 20:37 34.896405 -120.445440 314 264ft 0kts
20-Sep-18 20:38 34.896405 -120.445440 314 264ft 0kts
20-Sep-18 20:39 34.896405 -120.445440 314 264ft 0kts
20-Sep-18 20:40 34.896405 -120.445440 314 264ft 0kts
20-Sep-18 20:41 34.896405 -120.445440 314 264ft 0kts
20-Sep-18 20:42 34.896405 -120.445440 314 264ft 0kts
20-Sep-18 20:43 34.896405 -120.445440 314 264ft 0kts
20-Sep-18 20:44 34.896405 -120.445440 314 264ft 0kts
20-Sep-18 20:45 34.896405 -120.445440 314 264ft 0kts
20-Sep-18 20:46 34.896405 -120.445440 314 264ft 0kts
20-Sep-18 20:47 34.896405 -120.445440 314 264ft 0kts
20-Sep-18 20:48 34.896405 -120.445440 314 264ft 0kts
20-Sep-18 20:49 34.896405 -120.445440 314 264ft 0kts
20-Sep-18 20:50 34.896405 -120.445440 314 264ft 0kts
20-Sep-18 20:51 34.896405 -120.445440 314 264ft 0kts
20-Sep-18 20:52 34.896004 -120.445376 140 264ft 9kts
20-Sep-18 20:53 34.894215 -120.445028 153 264ft 6kts
20-Sep-18 20:54 34.893316 -120.444953 176 264ft 0kts
20-Sep-18 20:55 34.893278 -120.444952 178 264ft 4kts
20-Sep-18 20:56 34.898533 -120.452570 318 325ft 79kts
20-Sep-18 20:57 34.915323 -120.467434 358 1021ft 84kts
20-Sep-18 20:58 34.934433 -120.482861 322 1549ft 91kts
20-Sep-18 20:59 34.954762 -120.486558 64 2159ft 90kts
20-Sep-18 21:00 34.964122 -120.459505 65 2843ft 83kts
20-Sep-18 21:01 34.972666 -120.434636 64 3521ft 74kts
20-Sep-18 21:02 34.980561 -120.411664 63 4100ft 75kts
20-Sep-18 21:03 34.988937 -120.387190 65 4612ft 80kts
20-Sep-18 21:04 34.997662 -120.361740 67 5110ft 82kts
20-Sep-18 21:05 35.006533 -120.335679 67 5628ft 82kts
20-Sep-18 21:06 35.014708 -120.311745 68 6185ft 72kts
20-Sep-18 21:07 35.022699 -120.288304 66 6623ft 75kts
20-Sep-18 21:08 35.030495 -120.265411 67 7107ft 70kts
20-Sep-18 21:09 35.038294 -120.242504 66 7477ft 79kts
20-Sep-18 21:10 35.048229 -120.213223 67 7502ft 101kts
20-Sep-18 21:11 35.059256 -120.180748 67 7502ft 106kts
20-Sep-18 21:12 35.070634 -120.147236 67 7500ft 106kts
20-Sep-18 21:13 35.081932 -120.113875 67 7499ft 106kts
20-Sep-18 21:14 35.093270 -120.080451 67 7498ft 106kts
20-Sep-18 21:15 35.104377 -120.047650 67 7501ft 106kts
20-Sep-18 21:16 35.115665 -120.014250 66 7497ft 106kts
20-Sep-18 21:17 35.126958 -119.980786 67 7520ft 105kts
20-Sep-18 21:18 35.138211 -119.947467 67 7527ft 106kts
20-Sep-18 21:19 35.149425 -119.914195 67 7527ft 106kts
20-Sep-18 21:20 35.160713 -119.880674 66 7530ft 106kts
20-Sep-18 21:21 35.171975 -119.847181 67 7526ft 107kts
20-Sep-18 21:22 35.183244 -119.813639 67 7524ft 106kts
20-Sep-18 21:23 35.194389 -119.780460 66 7498ft 103kts
20-Sep-18 21:24 35.205096 -119.748502 67 7499ft 101kts
20-Sep-18 21:25 35.215737 -119.716710 67 7499ft 100kts
20-Sep-18 21:26 35.226346 -119.684951 68 7494ft 101kts
20-Sep-18 21:27 35.237000 -119.653124 67 7500ft 101kts
20-Sep-18 21:28 35.247583 -119.621423 67 7498ft 101kts
20-Sep-18 21:29 35.258172 -119.589596 67 7501ft 101kts
20-Sep-18 21:30 35.268771 -119.557730 67 7501ft 101kts
20-Sep-18 21:31 35.279347 -119.525945 67 7506ft 100kts
20-Sep-18 21:32 35.289904 -119.494192 66 7509ft 101kts
20-Sep-18 21:33 35.300486 -119.462347 67 7509ft 101kts
20-Sep-18 21:34 35.311136 -119.430204 67 7214ft 100kts
20-Sep-18 21:35 35.321813 -119.398006 67 7014ft 103kts
20-Sep-18 21:36 35.332911 -119.364431 67 6518ft 106kts
20-Sep-18 21:37 35.344022 -119.330875 68 6001ft 108kts
20-Sep-18 21:38 35.358417 -119.299021 55 5290ft 106kts
20-Sep-18 21:39 35.375145 -119.269189 56 4566ft 108kts
20-Sep-18 21:40 35.392394 -119.238348 56 3680ft 108kts
20-Sep-18 21:41 35.404952 -119.206039 78 2779ft 106kts
20-Sep-18 21:42 35.410351 -119.170516 80 1849ft 105kts
20-Sep-18 21:43 35.415635 -119.136110 78 1500ft 105kts
20-Sep-18 21:44 35.421981 -119.100639 76 1507ft 107kts
20-Sep-18 21:45 35.411426 -119.073995 137 1505ft 98kts
20-Sep-18 21:46 35.408873 -119.052263 50 1177ft 75kts
20-Sep-18 21:47 35.425268 -119.047126 328 697ft 65kts
20-Sep-18 21:48 35.435393 -119.058008 322 487ft 14kts
20-Sep-18 21:49 35.436293 -119.057762 71 491ft 0kts
20-Sep-18 21:50 35.435693 -119.056184 133 492ft 13kts
20-Sep-18 21:51 35.435163 -119.054053 28 496ft 10kts
20-Sep-18 21:52 35.435354 -119.053917 156 497ft 0kts
20-Sep-18 21:53 35.435354 -119.053917 156 497ft 0kts

Navigation Log

Ident Type
Flight plan parsing failed, navigation log unavailable